Hoback Junction, Wyoming
Current Conditions -  °F | °C
As of 7:53 PM on Friday 21 Nov 2014 (Local Time) from KJAC Reporting Station
Clear Clear  
Wind Chill: 15°   Ceiling: Unl
Heat Index: 21°   Visibility: 10mi
Dew Point: 19°   Wind: 5mph
Humidity: 93%   Direction: 140°SE
Pressure: 29.93"   Gusts: NA
Location:  43.4143°N, 110.582°W
Report Text: KJAC 220253Z 14004KT 10SM CLR M06/M07 A2993
Loading
Personal Weather Stations






























Interactive Weather Map New forecast layout! Learn more

10-Day Weather Forecast

Advertisements
Track Severe Weather on mobile